createdAt,value
2023-01-20T00:01:09.873Z,77409.34
2023-01-20T00:03:36.857Z,77411.25
2023-01-20T00:06:03.622Z,77403.56
2023-01-20T00:08:30.576Z,77415.13
2023-01-20T00:10:57.686Z,77407.41
2023-01-20T00:13:24.297Z,77411.25
2023-01-20T00:15:50.867Z,77422.84
2023-01-20T00:18:17.418Z,77422.84
2023-01-20T00:20:44.023Z,77413.19
2023-01-20T00:23:10.585Z,77430.53
2023-01-20T00:25:37.651Z,77449.81
2023-01-20T00:28:04.646Z,77447.88
2023-01-20T00:30:31.980Z,77442.09
2023-01-20T00:32:58.856Z,77445.97
2023-01-20T00:35:25.583Z,77445.97
2023-01-20T00:37:52.119Z,77457.53
2023-01-20T00:40:18.734Z,77486.44
2023-01-20T00:42:45.282Z,77486.44
2023-01-20T00:45:12.265Z,77503.78
2023-01-20T00:47:39.115Z,77503.78
2023-01-20T00:50:06.103Z,77505.72
2023-01-20T00:52:32.723Z,77509.56
2023-01-20T00:54:59.305Z,77523.06
2023-01-20T00:57:25.864Z,77542.34
2023-01-20T00:59:52.521Z,77553.91
2023-01-20T01:02:19.087Z,77546.19
2023-01-20T01:04:49.791Z,77550.06
2023-01-20T01:07:17.137Z,77550.06
2023-01-20T01:09:43.823Z,77546.19
2023-01-20T01:12:10.362Z,77540.41
2023-01-20T01:14:37.052Z,77546.19
2023-01-20T01:17:03.607Z,77542.34
2023-01-20T01:19:30.213Z,77546.19
2023-01-20T01:21:56.756Z,77550.06
2023-01-20T01:24:23.390Z,77557.75
2023-01-20T01:26:49.943Z,77569.31
2023-01-20T01:29:16.550Z,77569.31
2023-01-20T01:31:43.108Z,77551.97
2023-01-20T01:34:10.854Z,77555.84
2023-01-20T01:36:37.382Z,77557.75
2023-01-20T01:39:04.103Z,77565.47
2023-01-20T01:41:31.010Z,77561.63
2023-01-20T01:44:03.933Z,77546.19
2023-01-20T01:46:30.555Z,77544.28
2023-01-20T01:49:00.012Z,77546.19
2023-01-20T01:51:31.537Z,77550.06
2023-01-20T01:54:02.964Z,77561.63
2023-01-20T01:56:30.313Z,77567.41
2023-01-20T01:59:00.294Z,77565.47
2023-01-20T02:01:28.693Z,77567.41
2023-01-20T02:04:07.302Z,77580.91
2023-01-20T02:06:36.530Z,77592.47
2023-01-20T02:09:04.956Z,77602.09
2023-01-20T02:11:36.712Z,77592.47
2023-01-20T02:14:04.218Z,77577.03
2023-01-20T02:16:50.574Z,77567.41
2023-01-20T02:20:04.825Z,77575.09
2023-01-20T02:22:53.851Z,77559.69
2023-01-20T02:25:40.426Z,77565.47
2023-01-20T02:28:34.798Z,77559.69
2023-01-20T02:31:33.026Z,77565.47
2023-01-20T02:34:18.996Z,77577.03
2023-01-20T02:36:50.714Z,77592.47
2023-01-20T02:39:27.965Z,77590.53
2023-01-20T02:42:03.541Z,77600.16
2023-01-20T02:44:58.585Z,77594.38
2023-01-20T02:47:30.954Z,77578.97
2023-01-20T02:50:09.576Z,77573.19
2023-01-20T02:52:39.855Z,77577.03
2023-01-20T02:55:10.167Z,77580.91
2023-01-20T02:57:44.688Z,77578.97
2023-01-20T03:00:23.726Z,77578.97
2023-01-20T03:02:54.081Z,77569.31
2023-01-20T03:05:33.840Z,77569.31
2023-01-20T03:08:06.133Z,77571.25
2023-01-20T03:10:35.064Z,77573.19
2023-01-20T03:13:11.030Z,77573.19
2023-01-20T03:15:58.826Z,77565.47
2023-01-20T03:18:28.081Z,77578.97
2023-01-20T03:20:54.716Z,77565.47
2023-01-20T03:23:21.424Z,77559.69
2023-01-20T03:25:49.847Z,77563.53
2023-01-20T03:28:16.441Z,77565.47
2023-01-20T03:30:43.111Z,77561.63
2023-01-20T03:33:11.606Z,77553.91
2023-01-20T03:35:39.245Z,77553.91
2023-01-20T03:38:06.094Z,77569.31
2023-01-20T03:40:40.265Z,77561.63
2023-01-20T03:43:16.766Z,77557.75
2023-01-20T03:45:55.250Z,77553.91
2023-01-20T03:48:48.037Z,77546.19
2023-01-20T03:51:17.618Z,77553.91
2023-01-20T03:53:52.872Z,77553.91
2023-01-20T03:56:25.371Z,77550.06
2023-01-20T03:58:53.471Z,77553.91
2023-01-20T04:01:27.687Z,77546.19
2023-01-20T04:03:55.096Z,77546.19
2023-01-20T04:06:26.458Z,77553.91
2023-01-20T04:08:57.059Z,77553.91
2023-01-20T04:11:24.167Z,77557.75
2023-01-20T04:13:51.156Z,77569.31
2023-01-20T04:16:19.915Z,77569.31
2023-01-20T04:18:49.727Z,77567.41
2023-01-20T04:21:25.144Z,77584.75
2023-01-20T04:24:02.071Z,77586.69
2023-01-20T04:26:28.621Z,77604.03
2023-01-20T04:28:55.165Z,77604.03
2023-01-20T04:31:30.562Z,77607.88
2023-01-20T04:33:58.054Z,77623.31
2023-01-20T04:36:24.705Z,77638.72
2023-01-20T04:38:51.315Z,77636.78
2023-01-20T04:41:17.984Z,77627.16
2023-01-20T04:43:45.414Z,77623.31
2023-01-20T04:46:12.867Z,77634.88
2023-01-20T04:48:39.638Z,77627.16
2023-01-20T04:51:07.550Z,77638.72
2023-01-20T04:53:35.044Z,77644.50
2023-01-20T04:56:01.718Z,77650.28
2023-01-20T04:58:28.341Z,77654.13
2023-01-20T05:00:54.986Z,77648.34
2023-01-20T05:03:21.590Z,77667.63
2023-01-20T05:05:54.686Z,77661.84
2023-01-20T05:08:21.907Z,77669.56
2023-01-20T05:10:48.648Z,77677.28
2023-01-20T05:13:15.294Z,77677.28
2023-01-20T05:15:43.984Z,77683.06
2023-01-20T05:18:10.648Z,77683.06
2023-01-20T05:20:37.228Z,77684.97
2023-01-20T05:23:03.970Z,77684.97
2023-01-20T05:25:30.612Z,77696.53
2023-01-20T05:27:58.772Z,77692.69
2023-01-20T05:30:25.443Z,77679.19
2023-01-20T05:32:52.288Z,77669.56
2023-01-20T05:35:19.010Z,77667.63
2023-01-20T05:37:45.598Z,77661.84
2023-01-20T05:40:12.441Z,77661.84
2023-01-20T05:42:39.450Z,77646.44
2023-01-20T05:45:07.010Z,77646.44
2023-01-20T05:47:33.701Z,77631.00
2023-01-20T05:50:00.378Z,77632.94
2023-01-20T05:52:26.956Z,77638.72
2023-01-20T05:54:53.497Z,77634.88
2023-01-20T05:57:20.145Z,77631.00
2023-01-20T05:59:51.431Z,77638.72
2023-01-20T06:02:21.144Z,77636.78
2023-01-20T06:04:48.535Z,77646.44
2023-01-20T06:07:15.574Z,77654.13
2023-01-20T06:09:42.226Z,77654.13
2023-01-20T06:12:08.805Z,77646.44
2023-01-20T06:14:35.433Z,77650.28
2023-01-20T06:17:02.018Z,77644.50
2023-01-20T06:19:28.612Z,77634.88
2023-01-20T06:21:55.288Z,77642.56
2023-01-20T06:24:21.875Z,77627.16
2023-01-20T06:26:51.279Z,77631.00
2023-01-20T06:29:18.033Z,77629.09
2023-01-20T06:31:45.602Z,77619.44
2023-01-20T06:34:12.667Z,77623.31
2023-01-20T06:36:39.647Z,77619.44
2023-01-20T06:39:06.323Z,77615.59
2023-01-20T06:41:33.066Z,77609.81
2023-01-20T06:43:59.746Z,77611.72
2023-01-20T06:46:26.412Z,77607.88
2023-01-20T06:48:58.666Z,77604.03
2023-01-20T06:51:25.387Z,77604.03
2023-01-20T06:53:51.954Z,77607.88
2023-01-20T06:56:18.570Z,77607.88
2023-01-20T06:58:45.213Z,77604.03
2023-01-20T07:01:14.849Z,77600.16
2023-01-20T07:03:43.590Z,77602.09
2023-01-20T07:06:22.563Z,77602.09
2023-01-20T07:08:49.215Z,77598.25
2023-01-20T07:11:15.826Z,77600.16
2023-01-20T07:13:43.193Z,77596.31
2023-01-20T07:16:13.112Z,77588.59
2023-01-20T07:18:41.549Z,77582.81
2023-01-20T07:21:11.628Z,77580.91
2023-01-20T07:23:38.295Z,77580.91
2023-01-20T07:26:07.575Z,77577.03
2023-01-20T07:28:34.911Z,77578.97
2023-01-20T07:31:10.494Z,77569.31
2023-01-20T07:33:38.105Z,77567.41
2023-01-20T07:36:06.833Z,77567.41
2023-01-20T07:38:33.953Z,77573.19
2023-01-20T07:41:04.944Z,77573.19
2023-01-20T07:43:32.622Z,77569.31
2023-01-20T07:46:01.235Z,77561.63
2023-01-20T07:48:29.746Z,77557.75
2023-01-20T07:51:02.874Z,77567.41
2023-01-20T07:53:30.128Z,77553.91
2023-01-20T07:55:56.695Z,77553.91
2023-01-20T07:58:23.272Z,77538.47
2023-01-20T08:00:49.902Z,77530.78
2023-01-20T08:03:16.579Z,77530.78
2023-01-20T08:05:43.131Z,77526.91
2023-01-20T08:08:09.721Z,77530.78
2023-01-20T08:10:37.150Z,77530.78
2023-01-20T08:13:04.074Z,77525.00
2023-01-20T08:15:30.679Z,77530.78
2023-01-20T08:17:59.318Z,77511.50
2023-01-20T08:20:26.066Z,77507.66
2023-01-20T08:22:52.794Z,77499.94
2023-01-20T08:25:19.429Z,77488.38
2023-01-20T08:27:49.007Z,77488.38
2023-01-20T08:30:15.751Z,77488.38
2023-01-20T08:32:42.391Z,77480.66
2023-01-20T08:35:09.123Z,77490.28
2023-01-20T08:37:37.069Z,77490.28
2023-01-20T08:40:07.637Z,77492.22
2023-01-20T08:42:34.327Z,77484.50
2023-01-20T08:45:01.032Z,77482.59
2023-01-20T08:47:27.752Z,77486.44
2023-01-20T08:49:54.373Z,77476.81
2023-01-20T08:52:21.056Z,77490.28
2023-01-20T08:54:47.819Z,77465.25
2023-01-20T08:57:15.925Z,77461.38
2023-01-20T08:59:42.596Z,77455.59
2023-01-20T09:02:10.857Z,77457.53
2023-01-20T09:04:38.007Z,77461.38
2023-01-20T09:07:05.260Z,77457.53
2023-01-20T09:09:32.194Z,77459.47
2023-01-20T09:11:58.811Z,77442.09
2023-01-20T09:14:25.769Z,77449.81
2023-01-20T09:16:52.561Z,77438.25
2023-01-20T09:19:19.283Z,77430.53
2023-01-20T09:21:45.973Z,77430.53
2023-01-20T09:24:12.572Z,77426.69
2023-01-20T09:26:39.260Z,77418.97
2023-01-20T09:29:12.307Z,77426.69
2023-01-20T09:31:44.573Z,77420.91
2023-01-20T09:34:19.399Z,77397.78
2023-01-20T09:36:50.513Z,77399.69
2023-01-20T09:39:36.122Z,77390.06
2023-01-20T09:42:38.668Z,77390.06
2023-01-20T09:45:37.401Z,77386.22
2023-01-20T09:48:35.199Z,77372.72
2023-01-20T09:51:27.080Z,77372.72
2023-01-20T09:54:07.027Z,77359.22
2023-01-20T09:56:41.422Z,77353.44
2023-01-20T09:59:19.081Z,77361.16
2023-01-20T10:01:51.786Z,77332.25
2023-01-20T10:04:31.074Z,77316.81
2023-01-20T10:07:07.619Z,77289.84
2023-01-20T10:10:09.614Z,77289.84
2023-01-20T10:12:51.586Z,77287.91
2023-01-20T10:15:32.502Z,77257.06
2023-01-20T10:18:13.323Z,77237.78
2023-01-20T10:20:51.041Z,77230.09
2023-01-20T10:23:28.021Z,77206.97
2023-01-20T10:26:07.417Z,77214.66
2023-01-20T10:28:53.106Z,77199.25
2023-01-20T10:31:26.789Z,77201.19
2023-01-20T10:33:57.651Z,77210.81
2023-01-20T10:36:30.150Z,77201.19
2023-01-20T10:39:05.198Z,77176.13
2023-01-20T10:41:35.055Z,77176.13
2023-01-20T10:44:06.010Z,77147.22
2023-01-20T10:46:38.856Z,77129.88
2023-01-20T10:49:33.397Z,77143.34
2023-01-20T10:52:18.789Z,77147.22
2023-01-20T10:54:57.289Z,77133.72
2023-01-20T10:57:24.176Z,77153.00
2023-01-20T10:59:55.644Z,77153.00
2023-01-20T11:02:30.572Z,77126.00
2023-01-20T11:05:03.608Z,77137.56
2023-01-20T11:07:33.901Z,77106.75
2023-01-20T11:10:18.752Z,77118.31
2023-01-20T11:12:49.254Z,77079.75
2023-01-20T11:15:23.025Z,77083.59
2023-01-20T11:18:23.396Z,77099.03
2023-01-20T11:21:05.533Z,77075.91
2023-01-20T11:23:38.143Z,77070.13
2023-01-20T11:26:10.434Z,77070.13
2023-01-20T11:28:47.143Z,77056.63
2023-01-20T11:31:14.455Z,77031.56
2023-01-20T11:33:55.527Z,77014.22
2023-01-20T11:36:26.868Z,77010.38
2023-01-20T11:38:55.873Z,77048.91
2023-01-20T11:41:31.087Z,77014.22
2023-01-20T11:43:59.800Z,77033.50
2023-01-20T11:46:29.433Z,77054.69
2023-01-20T11:49:22.769Z,77035.44
2023-01-20T11:51:56.710Z,77018.09
2023-01-20T11:54:28.667Z,77018.09
2023-01-20T11:57:04.685Z,76991.09
2023-01-20T11:59:34.933Z,76991.09
2023-01-20T12:02:18.357Z,77004.59
2023-01-20T12:04:50.718Z,77014.22
2023-01-20T12:07:26.319Z,77018.09
2023-01-20T12:09:56.469Z,76998.81
2023-01-20T12:12:43.418Z,76991.09
2023-01-20T12:15:23.480Z,77000.75
2023-01-20T12:18:27.782Z,77002.66
2023-01-20T12:21:01.672Z,77014.22
2023-01-20T12:23:49.011Z,77025.78
2023-01-20T12:26:20.523Z,77048.91
2023-01-20T12:28:53.026Z,77056.63
2023-01-20T12:31:20.294Z,77060.47
2023-01-20T12:33:53.377Z,77079.75
2023-01-20T12:36:38.711Z,77073.97
2023-01-20T12:39:28.286Z,77056.63
2023-01-20T12:42:05.954Z,77050.84
2023-01-20T12:44:52.416Z,77052.78
2023-01-20T12:47:25.129Z,77064.34
2023-01-20T12:50:18.302Z,77052.78
2023-01-20T12:52:51.126Z,77052.78
2023-01-20T12:55:23.776Z,77056.63
2023-01-20T12:58:08.678Z,77050.84
2023-01-20T13:00:44.348Z,77050.84
2023-01-20T13:03:21.436Z,77060.47
2023-01-20T13:06:09.327Z,77060.47
2023-01-20T13:08:46.589Z,77068.19
2023-01-20T13:11:38.223Z,77060.47
2023-01-20T13:14:15.334Z,77083.59
2023-01-20T13:16:58.686Z,77073.97
2023-01-20T13:19:34.942Z,77066.25
2023-01-20T13:22:31.190Z,77079.75
2023-01-20T13:25:00.199Z,77087.47
2023-01-20T13:27:32.394Z,77106.75
2023-01-20T13:30:03.081Z,77087.47
2023-01-20T13:32:31.548Z,77106.75
2023-01-20T13:34:59.641Z,77110.59
2023-01-20T13:37:32.554Z,77133.72
2023-01-20T13:40:00.468Z,77116.38
2023-01-20T13:42:46.647Z,77122.16
2023-01-20T13:45:13.726Z,77118.31
2023-01-20T13:47:52.569Z,77131.78
2023-01-20T13:50:23.942Z,77133.72
2023-01-20T13:52:50.525Z,77131.78
2023-01-20T13:55:44.042Z,77141.44
2023-01-20T13:58:13.413Z,77143.34
2023-01-20T14:00:40.079Z,77143.34
2023-01-20T14:03:33.492Z,77145.28
2023-01-20T14:06:06.961Z,77156.84
2023-01-20T14:08:43.393Z,77153.00
2023-01-20T14:11:13.991Z,77156.84
2023-01-20T14:13:42.736Z,77149.13
2023-01-20T14:16:38.500Z,77153.00
2023-01-20T14:19:28.017Z,77158.78
2023-01-20T14:21:56.880Z,77160.69
2023-01-20T14:24:30.785Z,77164.56
2023-01-20T14:27:23.259Z,77172.28
2023-01-20T14:29:51.912Z,77160.69
2023-01-20T14:32:25.410Z,77172.28
2023-01-20T14:34:56.584Z,77164.56
2023-01-20T14:37:32.388Z,77176.13
2023-01-20T14:40:28.445Z,77178.06
2023-01-20T14:43:03.158Z,77172.28
2023-01-20T14:45:32.753Z,77172.28
2023-01-20T14:48:02.139Z,77164.56
2023-01-20T14:50:29.789Z,77179.97
2023-01-20T14:52:56.574Z,77187.69
2023-01-20T14:55:45.752Z,77189.63
2023-01-20T14:58:15.714Z,77189.63
2023-01-20T15:00:50.194Z,77191.53
2023-01-20T15:03:26.316Z,77191.53
2023-01-20T15:06:08.872Z,77195.41
2023-01-20T15:08:35.419Z,77199.25
2023-01-20T15:11:23.744Z,77203.09
2023-01-20T15:13:53.279Z,77203.09
2023-01-20T15:16:26.569Z,77214.66
2023-01-20T15:19:14.741Z,77220.44
2023-01-20T15:21:47.200Z,77156.84
2023-01-20T15:24:17.243Z,77168.41
2023-01-20T15:26:45.104Z,77199.25
2023-01-20T15:29:28.216Z,77210.81
2023-01-20T15:31:57.469Z,77224.31
2023-01-20T15:34:25.478Z,77233.94
2023-01-20T15:36:53.807Z,77241.66
2023-01-20T15:39:24.250Z,77237.78
2023-01-20T15:41:57.222Z,77241.66
2023-01-20T15:44:25.506Z,77251.28
2023-01-20T15:46:53.334Z,77255.16
2023-01-20T15:49:20.748Z,77253.22
2023-01-20T15:51:47.325Z,77251.28
2023-01-20T15:54:13.973Z,77247.44
2023-01-20T15:56:42.308Z,77253.22
2023-01-20T15:59:13.838Z,77259.00
2023-01-20T16:01:40.471Z,77255.16
2023-01-20T16:04:07.150Z,77264.78
2023-01-20T16:06:34.500Z,77264.78
2023-01-20T16:09:02.375Z,77270.56
2023-01-20T16:11:29.082Z,77260.94
2023-01-20T16:13:55.739Z,77268.63
2023-01-20T16:16:23.941Z,77276.34
2023-01-20T16:18:50.858Z,77274.41
2023-01-20T16:21:19.080Z,77276.34
2023-01-20T16:23:45.905Z,77272.50
2023-01-20T16:26:22.707Z,77274.41
2023-01-20T16:28:54.393Z,77272.50
2023-01-20T16:31:22.340Z,77276.34
2023-01-20T16:33:49.316Z,77276.34
2023-01-20T16:36:17.746Z,77280.19
2023-01-20T16:38:45.138Z,77284.06
2023-01-20T16:41:26.493Z,77287.91
2023-01-20T16:43:54.445Z,77280.19
2023-01-20T16:46:24.279Z,77291.75
2023-01-20T16:48:51.537Z,77299.47
2023-01-20T16:51:21.394Z,77297.53
2023-01-20T16:53:48.560Z,77299.47
2023-01-20T16:56:15.817Z,77299.47
2023-01-20T16:58:43.322Z,77303.34
2023-01-20T17:01:13.121Z,77305.25
2023-01-20T17:03:42.653Z,77295.63
2023-01-20T17:06:16.081Z,77305.25
2023-01-20T17:08:45.318Z,77303.34
2023-01-20T17:11:26.814Z,77303.34
2023-01-20T17:13:54.918Z,77303.34
2023-01-20T17:16:22.610Z,77299.47
2023-01-20T17:18:54.439Z,77303.34
2023-01-20T17:21:22.494Z,77280.19
2023-01-20T17:23:51.300Z,77139.50
2023-01-20T17:26:18.437Z,77172.28
2023-01-20T17:28:45.199Z,77133.72
2023-01-20T17:31:11.834Z,77100.97
2023-01-20T17:33:38.678Z,77212.75
2023-01-20T17:36:06.480Z,77226.22
2023-01-20T17:38:35.261Z,77187.69
2023-01-20T17:41:03.864Z,77183.84
2023-01-20T17:43:35.489Z,77072.03
2023-01-20T17:46:15.123Z,77210.81
2023-01-20T17:48:42.294Z,77147.22
2023-01-20T17:51:16.032Z,77135.66
2023-01-20T17:53:43.435Z,77141.44
2023-01-20T17:56:13.299Z,77222.38
2023-01-20T17:58:41.774Z,77241.66
2023-01-20T18:01:16.748Z,77243.56
2023-01-20T18:03:44.573Z,77268.63
2023-01-20T18:06:15.096Z,77260.94
2023-01-20T18:08:42.717Z,77228.16
2023-01-20T18:11:15.142Z,77262.84
2023-01-20T18:13:42.114Z,77268.63
2023-01-20T18:16:12.342Z,77278.28
2023-01-20T18:18:40.422Z,77264.78
2023-01-20T18:21:28.863Z,77272.50
2023-01-20T18:23:56.897Z,77285.97
2023-01-20T18:26:25.573Z,77284.06
2023-01-20T18:28:57.081Z,77276.34
2023-01-20T18:31:24.981Z,77287.91
2023-01-20T18:33:54.454Z,77276.34
2023-01-20T18:36:27.145Z,77287.91
2023-01-20T18:38:55.697Z,77260.94
2023-01-20T18:41:24.198Z,77276.34
2023-01-20T18:43:51.039Z,77276.34
2023-01-20T18:46:18.005Z,77264.78
2023-01-20T18:48:46.119Z,77276.34
2023-01-20T18:51:17.144Z,77264.78
2023-01-20T18:53:45.882Z,77276.34
2023-01-20T18:56:15.228Z,77278.28
2023-01-20T18:58:47.061Z,77268.63
2023-01-20T19:01:20.034Z,77272.50
2023-01-20T19:03:48.346Z,77272.50
2023-01-20T19:06:17.670Z,77276.34
2023-01-20T19:08:45.755Z,77274.41
2023-01-20T19:11:24.136Z,77268.63
2023-01-20T19:13:53.357Z,77280.19
2023-01-20T19:16:22.142Z,77285.97
2023-01-20T19:18:54.281Z,77276.34
2023-01-20T19:21:22.092Z,77295.63
2023-01-20T19:23:50.329Z,77299.47
2023-01-20T19:26:19.993Z,77297.53
2023-01-20T19:28:48.552Z,77303.34
2023-01-20T19:31:17.907Z,77295.63
2023-01-20T19:33:46.098Z,77285.97
2023-01-20T19:36:14.590Z,77295.63
2023-01-20T19:38:41.896Z,77299.47
2023-01-20T19:41:16.735Z,77307.19
2023-01-20T19:43:44.804Z,77305.25
2023-01-20T19:46:17.514Z,77280.19
2023-01-20T19:48:44.603Z,77303.34
2023-01-20T19:51:13.984Z,77307.19
2023-01-20T19:53:42.581Z,77299.47
2023-01-20T19:56:15.300Z,77311.03
2023-01-20T19:58:42.819Z,77214.66
2023-01-20T20:01:20.116Z,77303.34
2023-01-20T20:03:47.379Z,77312.97
2023-01-20T20:06:26.020Z,77303.34
2023-01-20T20:08:53.892Z,77322.59
2023-01-20T20:11:20.475Z,77322.59
2023-01-20T20:13:47.138Z,77330.31
2023-01-20T20:16:13.786Z,77334.16
2023-01-20T20:18:40.370Z,77341.88
2023-01-20T20:21:08.382Z,77355.38
2023-01-20T20:23:35.291Z,77355.38
2023-01-20T20:26:01.950Z,77353.44
2023-01-20T20:28:29.118Z,77368.88
2023-01-20T20:30:55.813Z,77372.72
2023-01-20T20:33:25.625Z,77382.34
2023-01-20T20:35:52.214Z,77380.44
2023-01-20T20:38:18.858Z,77409.34
2023-01-20T20:40:45.504Z,77420.91
2023-01-20T20:43:12.172Z,77438.25
2023-01-20T20:45:38.799Z,77449.81
2023-01-20T20:48:05.765Z,77461.38
2023-01-20T20:50:32.426Z,77472.94
2023-01-20T20:52:59.143Z,77488.38
2023-01-20T20:55:26.296Z,77503.78
2023-01-20T20:57:52.937Z,77511.50
2023-01-20T21:00:23.457Z,77526.91
2023-01-20T21:02:50.292Z,77530.78
2023-01-20T21:05:18.818Z,77536.56
2023-01-20T21:07:45.842Z,77523.06
2023-01-20T21:10:14.054Z,77536.56
2023-01-20T21:12:41.051Z,77546.19
2023-01-20T21:15:08.731Z,77550.06
2023-01-20T21:17:35.297Z,77550.06
2023-01-20T21:20:02.145Z,77538.47
2023-01-20T21:22:28.767Z,77530.78
2023-01-20T21:24:55.650Z,77546.19
2023-01-20T21:27:22.530Z,77540.41
2023-01-20T21:29:49.194Z,77546.19
2023-01-20T21:32:16.058Z,77538.47
2023-01-20T21:34:42.650Z,77530.78
2023-01-20T21:37:09.476Z,77538.47
2023-01-20T21:39:36.069Z,77519.22
2023-01-20T21:42:05.973Z,77526.91
2023-01-20T21:44:34.016Z,77542.34
2023-01-20T21:47:03.512Z,77546.19
2023-01-20T21:49:49.369Z,77534.63
2023-01-20T21:52:37.291Z,77553.91
2023-01-20T21:55:06.194Z,77559.69
2023-01-20T21:57:32.925Z,77555.84
2023-01-20T22:00:00.930Z,77553.91
2023-01-20T22:02:28.701Z,77573.19
2023-01-20T22:04:56.010Z,77561.63
2023-01-20T22:07:23.434Z,77565.47
2023-01-20T22:09:49.995Z,77555.84
2023-01-20T22:12:16.563Z,77542.34
2023-01-20T22:14:43.298Z,77559.69
2023-01-20T22:17:11.676Z,77582.81
2023-01-20T22:19:39.015Z,77580.91
2023-01-20T22:22:06.615Z,77588.59
2023-01-20T22:24:33.522Z,77592.47
2023-01-20T22:27:01.638Z,77577.03
2023-01-20T22:29:28.648Z,77584.75
2023-01-20T22:31:55.744Z,77580.91
2023-01-20T22:34:22.541Z,77594.38
2023-01-20T22:36:49.184Z,77584.75
2023-01-20T22:39:16.173Z,77588.59
2023-01-20T22:41:42.809Z,77573.19
2023-01-20T22:44:09.592Z,77567.41
2023-01-20T22:46:36.227Z,77563.53
2023-01-20T22:49:02.811Z,77573.19
2023-01-20T22:51:30.487Z,77573.19
2023-01-20T22:53:59.935Z,77578.97
2023-01-20T22:56:29.394Z,77577.03
2023-01-20T22:58:57.358Z,77588.59
2023-01-20T23:01:28.027Z,77584.75
2023-01-20T23:03:57.072Z,77580.91
2023-01-20T23:06:24.789Z,77584.75
2023-01-20T23:08:51.877Z,77582.81
2023-01-20T23:11:21.193Z,77580.91
2023-01-20T23:13:48.276Z,77580.91
2023-01-20T23:16:17.932Z,77588.59
2023-01-20T23:18:46.178Z,77578.97
2023-01-20T23:21:13.266Z,77577.03
2023-01-20T23:23:39.903Z,77573.19
2023-01-20T23:26:11.788Z,77575.09
2023-01-20T23:28:38.410Z,77573.19
2023-01-20T23:31:07.952Z,77575.09
2023-01-20T23:33:34.615Z,77573.19
2023-01-20T23:36:08.805Z,77573.19
2023-01-20T23:38:35.509Z,77571.25
2023-01-20T23:41:03.066Z,77565.47
2023-01-20T23:43:30.805Z,77569.31
2023-01-20T23:46:02.435Z,77565.47
2023-01-20T23:48:30.161Z,77567.41
2023-01-20T23:50:59.881Z,77577.03
2023-01-20T23:53:28.410Z,77561.63
2023-01-20T23:56:11.116Z,77573.19
2023-01-20T23:58:37.735Z,77573.19
